sensor_id;sensor_type;location;lat;lon;timestamp;P1;durP1;ratioP1;P2;durP2;ratioP2
4049;SDS011;2039;50.894;6.888;2023-03-23T00:01:09;71.28;;;6.10;;
4049;SDS011;2039;50.894;6.888;2023-03-23T00:03:38;66.57;;;6.25;;
4049;SDS011;2039;50.894;6.888;2023-03-23T00:06:04;65.97;;;6.65;;
4049;SDS011;2039;50.894;6.888;2023-03-23T00:08:32;65.65;;;5.93;;
4049;SDS011;2039;50.894;6.888;2023-03-23T00:11:02;72.70;;;5.78;;
4049;SDS011;2039;50.894;6.888;2023-03-23T00:13:29;65.95;;;6.70;;
4049;SDS011;2039;50.894;6.888;2023-03-23T00:15:55;65.40;;;6.07;;
4049;SDS011;2039;50.894;6.888;2023-03-23T00:18:22;64.93;;;6.32;;
4049;SDS011;2039;50.894;6.888;2023-03-23T00:20:49;64.68;;;5.50;;
4049;SDS011;2039;50.894;6.888;2023-03-23T00:23:21;64.32;;;5.50;;
4049;SDS011;2039;50.894;6.888;2023-03-23T00:25:52;64.28;;;4.68;;
4049;SDS011;2039;50.894;6.888;2023-03-23T00:28:23;65.68;;;5.68;;
4049;SDS011;2039;50.894;6.888;2023-03-23T00:30:57;66.55;;;5.65;;
4049;SDS011;2039;50.894;6.888;2023-03-23T00:33:27;64.38;;;5.03;;
4049;SDS011;2039;50.894;6.888;2023-03-23T00:35:55;65.07;;;4.63;;
4049;SDS011;2039;50.894;6.888;2023-03-23T00:38:21;65.78;;;5.18;;
4049;SDS011;2039;50.894;6.888;2023-03-23T00:40:48;69.88;;;5.32;;
4049;SDS011;2039;50.894;6.888;2023-03-23T00:43:15;65.13;;;5.72;;
4049;SDS011;2039;50.894;6.888;2023-03-23T00:45:42;65.53;;;5.22;;
4049;SDS011;2039;50.894;6.888;2023-03-23T00:48:21;65.22;;;5.30;;
4049;SDS011;2039;50.894;6.888;2023-03-23T00:50:48;65.32;;;6.53;;
4049;SDS011;2039;50.894;6.888;2023-03-23T00:53:15;65.55;;;5.40;;
4049;SDS011;2039;50.894;6.888;2023-03-23T00:55:42;65.03;;;6.20;;
4049;SDS011;2039;50.894;6.888;2023-03-23T00:58:09;65.93;;;6.57;;
4049;SDS011;2039;50.894;6.888;2023-03-23T01:00:35;65.22;;;5.80;;
4049;SDS011;2039;50.894;6.888;2023-03-23T01:03:01;65.10;;;4.77;;
4049;SDS011;2039;50.894;6.888;2023-03-23T01:05:27;66.20;;;4.77;;
4049;SDS011;2039;50.894;6.888;2023-03-23T01:07:59;65.68;;;5.80;;
4049;SDS011;2039;50.894;6.888;2023-03-23T01:10:26;65.28;;;5.35;;
4049;SDS011;2039;50.894;6.888;2023-03-23T01:12:52;64.67;;;5.27;;
4049;SDS011;2039;50.894;6.888;2023-03-23T01:15:20;65.13;;;5.70;;
4049;SDS011;2039;50.894;6.888;2023-03-23T01:17:46;67.15;;;6.13;;
4049;SDS011;2039;50.894;6.888;2023-03-23T01:20:12;65.60;;;5.23;;
4049;SDS011;2039;50.894;6.888;2023-03-23T01:22:40;65.53;;;5.25;;
4049;SDS011;2039;50.894;6.888;2023-03-23T01:25:07;65.13;;;4.93;;
4049;SDS011;2039;50.894;6.888;2023-03-23T01:27:34;64.85;;;5.85;;
4049;SDS011;2039;50.894;6.888;2023-03-23T01:30:00;66.10;;;5.00;;
4049;SDS011;2039;50.894;6.888;2023-03-23T01:32:26;67.15;;;5.35;;
4049;SDS011;2039;50.894;6.888;2023-03-23T01:34:52;65.00;;;5.33;;
4049;SDS011;2039;50.894;6.888;2023-03-23T01:37:18;64.93;;;5.60;;
4049;SDS011;2039;50.894;6.888;2023-03-23T01:39:44;66.20;;;5.75;;
4049;SDS011;2039;50.894;6.888;2023-03-23T01:42:10;65.07;;;4.80;;
4049;SDS011;2039;50.894;6.888;2023-03-23T01:47:02;65.20;;;5.70;;
4049;SDS011;2039;50.894;6.888;2023-03-23T01:49:32;65.67;;;6.60;;
4049;SDS011;2039;50.894;6.888;2023-03-23T01:52:02;65.50;;;6.55;;
4049;SDS011;2039;50.894;6.888;2023-03-23T01:54:33;68.63;;;6.82;;
4049;SDS011;2039;50.894;6.888;2023-03-23T01:57:09;65.80;;;6.88;;
4049;SDS011;2039;50.894;6.888;2023-03-23T01:59:38;67.88;;;10.38;;
4049;SDS011;2039;50.894;6.888;2023-03-23T02:02:07;68.18;;;9.20;;
4049;SDS011;2039;50.894;6.888;2023-03-23T02:04:35;65.90;;;7.47;;
4049;SDS011;2039;50.894;6.888;2023-03-23T02:07:02;68.38;;;8.77;;
4049;SDS011;2039;50.894;6.888;2023-03-23T02:09:28;66.40;;;8.38;;
4049;SDS011;2039;50.894;6.888;2023-03-23T02:11:55;69.95;;;10.15;;
4049;SDS011;2039;50.894;6.888;2023-03-23T02:14:22;68.93;;;10.63;;
4049;SDS011;2039;50.894;6.888;2023-03-23T02:19:50;67.28;;;10.57;;
4049;SDS011;2039;50.894;6.888;2023-03-23T02:28:34;68.70;;;10.20;;
4049;SDS011;2039;50.894;6.888;2023-03-23T02:39:25;66.72;;;9.90;;
4049;SDS011;2039;50.894;6.888;2023-03-23T02:41:58;65.90;;;7.25;;
4049;SDS011;2039;50.894;6.888;2023-03-23T02:44:30;67.72;;;10.90;;
4049;SDS011;2039;50.894;6.888;2023-03-23T02:46:58;66.22;;;9.50;;
4049;SDS011;2039;50.894;6.888;2023-03-23T02:49:28;66.32;;;9.70;;
4049;SDS011;2039;50.894;6.888;2023-03-23T02:51:56;67.75;;;10.32;;
4049;SDS011;2039;50.894;6.888;2023-03-23T02:54:24;67.38;;;10.02;;
4049;SDS011;2039;50.894;6.888;2023-03-23T02:56:52;67.10;;;10.57;;
4049;SDS011;2039;50.894;6.888;2023-03-23T02:59:19;66.43;;;9.68;;
4049;SDS011;2039;50.894;6.888;2023-03-23T03:01:55;66.37;;;10.30;;
4049;SDS011;2039;50.894;6.888;2023-03-23T03:04:25;66.95;;;9.07;;
4049;SDS011;2039;50.894;6.888;2023-03-23T03:09:42;67.00;;;9.90;;
4049;SDS011;2039;50.894;6.888;2023-03-23T03:20:28;65.95;;;9.35;;
4049;SDS011;2039;50.894;6.888;2023-03-23T03:22:56;66.40;;;8.95;;
4049;SDS011;2039;50.894;6.888;2023-03-23T03:25:22;66.53;;;9.30;;
4049;SDS011;2039;50.894;6.888;2023-03-23T03:27:50;66.38;;;8.40;;
4049;SDS011;2039;50.894;6.888;2023-03-23T03:30:20;67.20;;;9.07;;
4049;SDS011;2039;50.894;6.888;2023-03-23T03:32:51;66.00;;;7.90;;
4049;SDS011;2039;50.894;6.888;2023-03-23T03:35:21;66.30;;;7.43;;
4049;SDS011;2039;50.894;6.888;2023-03-23T03:37:48;68.78;;;8.07;;
4049;SDS011;2039;50.894;6.888;2023-03-23T03:40:16;66.30;;;9.10;;
4049;SDS011;2039;50.894;6.888;2023-03-23T03:42:44;65.75;;;7.40;;
4049;SDS011;2039;50.894;6.888;2023-03-23T03:45:12;65.85;;;8.25;;
4049;SDS011;2039;50.894;6.888;2023-03-23T03:47:39;65.70;;;7.72;;
4049;SDS011;2039;50.894;6.888;2023-03-23T03:50:05;65.10;;;8.47;;
4049;SDS011;2039;50.894;6.888;2023-03-23T03:52:31;66.15;;;7.20;;
4049;SDS011;2039;50.894;6.888;2023-03-23T03:54:57;65.47;;;8.30;;
4049;SDS011;2039;50.894;6.888;2023-03-23T03:57:23;67.40;;;7.67;;
4049;SDS011;2039;50.894;6.888;2023-03-23T03:59:49;65.57;;;8.15;;
4049;SDS011;2039;50.894;6.888;2023-03-23T04:02:16;66.10;;;6.80;;
4049;SDS011;2039;50.894;6.888;2023-03-23T04:04:48;65.60;;;7.47;;
4049;SDS011;2039;50.894;6.888;2023-03-23T04:07:14;66.10;;;7.60;;
4049;SDS011;2039;50.894;6.888;2023-03-23T04:09:41;65.93;;;8.30;;
4049;SDS011;2039;50.894;6.888;2023-03-23T04:12:08;65.38;;;7.25;;
4049;SDS011;2039;50.894;6.888;2023-03-23T04:14:34;66.10;;;7.10;;
4049;SDS011;2039;50.894;6.888;2023-03-23T04:17:00;64.87;;;7.03;;
4049;SDS011;2039;50.894;6.888;2023-03-23T04:19:26;66.90;;;7.30;;
4049;SDS011;2039;50.894;6.888;2023-03-23T04:21:53;68.55;;;7.22;;
4049;SDS011;2039;50.894;6.888;2023-03-23T04:24:20;65.72;;;6.88;;
4049;SDS011;2039;50.894;6.888;2023-03-23T04:26:46;67.10;;;6.93;;
4049;SDS011;2039;50.894;6.888;2023-03-23T04:29:12;65.32;;;7.38;;
4049;SDS011;2039;50.894;6.888;2023-03-23T04:31:38;65.73;;;7.13;;
4049;SDS011;2039;50.894;6.888;2023-03-23T04:34:05;65.10;;;7.15;;
4049;SDS011;2039;50.894;6.888;2023-03-23T04:36:31;67.20;;;8.10;;
4049;SDS011;2039;50.894;6.888;2023-03-23T04:38:58;67.00;;;8.73;;
4049;SDS011;2039;50.894;6.888;2023-03-23T04:41:25;66.10;;;7.90;;
4049;SDS011;2039;50.894;6.888;2023-03-23T04:43:51;66.95;;;8.88;;
4049;SDS011;2039;50.894;6.888;2023-03-23T04:46:18;66.20;;;8.02;;
4049;SDS011;2039;50.894;6.888;2023-03-23T04:48:46;66.47;;;7.50;;
4049;SDS011;2039;50.894;6.888;2023-03-23T04:51:12;66.38;;;7.55;;
4049;SDS011;2039;50.894;6.888;2023-03-23T04:53:38;66.10;;;7.33;;
4049;SDS011;2039;50.894;6.888;2023-03-23T04:56:04;66.30;;;7.13;;
4049;SDS011;2039;50.894;6.888;2023-03-23T04:58:30;67.05;;;7.78;;
4049;SDS011;2039;50.894;6.888;2023-03-23T05:00:59;66.10;;;7.40;;
4049;SDS011;2039;50.894;6.888;2023-03-23T05:03:25;66.10;;;8.13;;
4049;SDS011;2039;50.894;6.888;2023-03-23T05:05:52;65.60;;;7.80;;
4049;SDS011;2039;50.894;6.888;2023-03-23T05:08:21;67.68;;;10.15;;
4049;SDS011;2039;50.894;6.888;2023-03-23T05:10:51;65.97;;;8.35;;
4049;SDS011;2039;50.894;6.888;2023-03-23T05:13:21;65.45;;;7.45;;
4049;SDS011;2039;50.894;6.888;2023-03-23T05:15:47;66.55;;;8.57;;
4049;SDS011;2039;50.894;6.888;2023-03-23T05:18:13;66.23;;;8.40;;
4049;SDS011;2039;50.894;6.888;2023-03-23T05:20:39;65.95;;;7.78;;
4049;SDS011;2039;50.894;6.888;2023-03-23T05:23:07;66.07;;;7.22;;
4049;SDS011;2039;50.894;6.888;2023-03-23T05:25:34;67.20;;;7.85;;
4049;SDS011;2039;50.894;6.888;2023-03-23T05:28:04;67.95;;;8.00;;
4049;SDS011;2039;50.894;6.888;2023-03-23T05:30:34;67.28;;;8.30;;
4049;SDS011;2039;50.894;6.888;2023-03-23T05:33:01;66.85;;;9.57;;
4049;SDS011;2039;50.894;6.888;2023-03-23T05:35:28;66.40;;;9.65;;
4049;SDS011;2039;50.894;6.888;2023-03-23T05:37:54;65.97;;;6.97;;
4049;SDS011;2039;50.894;6.888;2023-03-23T05:40:21;68.95;;;9.50;;
4049;SDS011;2039;50.894;6.888;2023-03-23T05:42:48;66.63;;;8.60;;
4049;SDS011;2039;50.894;6.888;2023-03-23T05:45:14;66.00;;;8.67;;
4049;SDS011;2039;50.894;6.888;2023-03-23T05:47:40;68.57;;;7.10;;
4049;SDS011;2039;50.894;6.888;2023-03-23T05:50:09;66.65;;;7.95;;
4049;SDS011;2039;50.894;6.888;2023-03-23T05:52:35;66.88;;;8.27;;
4049;SDS011;2039;50.894;6.888;2023-03-23T05:55:05;68.15;;;8.55;;
4049;SDS011;2039;50.894;6.888;2023-03-23T05:57:39;68.30;;;8.63;;
4049;SDS011;2039;50.894;6.888;2023-03-23T06:00:05;65.50;;;6.40;;
4049;SDS011;2039;50.894;6.888;2023-03-23T06:02:44;67.22;;;7.53;;
4049;SDS011;2039;50.894;6.888;2023-03-23T06:05:11;67.40;;;7.63;;
4049;SDS011;2039;50.894;6.888;2023-03-23T06:07:38;66.70;;;7.45;;
4049;SDS011;2039;50.894;6.888;2023-03-23T06:10:10;67.65;;;7.40;;
4049;SDS011;2039;50.894;6.888;2023-03-23T06:12:37;66.43;;;7.15;;
4049;SDS011;2039;50.894;6.888;2023-03-23T06:15:04;67.05;;;5.90;;
4049;SDS011;2039;50.894;6.888;2023-03-23T06:17:34;65.95;;;4.53;;
4049;SDS011;2039;50.894;6.888;2023-03-23T06:20:01;67.97;;;4.97;;
4049;SDS011;2039;50.894;6.888;2023-03-23T06:22:29;68.40;;;5.38;;
4049;SDS011;2039;50.894;6.888;2023-03-23T06:24:55;72.03;;;5.80;;
4049;SDS011;2039;50.894;6.888;2023-03-23T06:27:23;68.55;;;6.05;;
4049;SDS011;2039;50.894;6.888;2023-03-23T06:29:49;68.30;;;5.60;;
4049;SDS011;2039;50.894;6.888;2023-03-23T06:32:15;65.93;;;5.47;;
4049;SDS011;2039;50.894;6.888;2023-03-23T06:34:41;66.63;;;5.00;;
4049;SDS011;2039;50.894;6.888;2023-03-23T06:37:09;65.80;;;4.75;;
4049;SDS011;2039;50.894;6.888;2023-03-23T06:39:36;69.88;;;5.45;;
4049;SDS011;2039;50.894;6.888;2023-03-23T06:42:03;66.18;;;5.53;;
4049;SDS011;2039;50.894;6.888;2023-03-23T06:44:29;66.87;;;5.00;;
4049;SDS011;2039;50.894;6.888;2023-03-23T06:46:54;67.37;;;5.77;;
4049;SDS011;2039;50.894;6.888;2023-03-23T06:49:20;67.63;;;4.90;;
4049;SDS011;2039;50.894;6.888;2023-03-23T06:51:47;69.38;;;6.75;;
4049;SDS011;2039;50.894;6.888;2023-03-23T06:54:12;67.90;;;5.60;;
4049;SDS011;2039;50.894;6.888;2023-03-23T06:56:38;66.20;;;4.90;;
4049;SDS011;2039;50.894;6.888;2023-03-23T06:59:04;65.67;;;4.80;;
4049;SDS011;2039;50.894;6.888;2023-03-23T07:01:29;65.90;;;4.90;;
4049;SDS011;2039;50.894;6.888;2023-03-23T07:03:55;65.27;;;4.80;;
4049;SDS011;2039;50.894;6.888;2023-03-23T07:06:21;67.83;;;5.17;;
4049;SDS011;2039;50.894;6.888;2023-03-23T07:08:47;69.65;;;4.88;;
4049;SDS011;2039;50.894;6.888;2023-03-23T07:11:13;64.90;;;5.40;;
4049;SDS011;2039;50.894;6.888;2023-03-23T07:13:38;64.90;;;5.53;;
4049;SDS011;2039;50.894;6.888;2023-03-23T07:16:05;67.25;;;5.68;;
4049;SDS011;2039;50.894;6.888;2023-03-23T07:18:31;64.88;;;5.15;;
4049;SDS011;2039;50.894;6.888;2023-03-23T07:20:58;65.38;;;6.10;;
4049;SDS011;2039;50.894;6.888;2023-03-23T07:23:23;65.82;;;7.25;;
4049;SDS011;2039;50.894;6.888;2023-03-23T07:25:49;65.88;;;5.40;;
4049;SDS011;2039;50.894;6.888;2023-03-23T07:28:15;66.40;;;5.17;;
4049;SDS011;2039;50.894;6.888;2023-03-23T07:30:42;68.63;;;5.05;;
4049;SDS011;2039;50.894;6.888;2023-03-23T07:33:08;66.82;;;4.43;;
4049;SDS011;2039;50.894;6.888;2023-03-23T07:35:34;66.60;;;5.40;;
4049;SDS011;2039;50.894;6.888;2023-03-23T07:38:01;65.10;;;5.40;;
4049;SDS011;2039;50.894;6.888;2023-03-23T07:40:27;66.57;;;5.82;;
4049;SDS011;2039;50.894;6.888;2023-03-23T07:42:57;67.78;;;6.38;;
4049;SDS011;2039;50.894;6.888;2023-03-23T07:45:23;66.28;;;7.30;;
4049;SDS011;2039;50.894;6.888;2023-03-23T07:47:49;65.78;;;7.70;;
4049;SDS011;2039;50.894;6.888;2023-03-23T07:50:15;65.72;;;9.52;;
4049;SDS011;2039;50.894;6.888;2023-03-23T07:52:42;67.00;;;7.63;;
4049;SDS011;2039;50.894;6.888;2023-03-23T07:55:08;66.57;;;7.80;;
4049;SDS011;2039;50.894;6.888;2023-03-23T07:57:42;68.72;;;8.50;;
4049;SDS011;2039;50.894;6.888;2023-03-23T08:00:12;66.70;;;9.10;;
4049;SDS011;2039;50.894;6.888;2023-03-23T08:02:46;68.35;;;8.27;;
4049;SDS011;2039;50.894;6.888;2023-03-23T08:05:13;66.30;;;8.10;;
4049;SDS011;2039;50.894;6.888;2023-03-23T08:07:40;65.90;;;7.50;;
4049;SDS011;2039;50.894;6.888;2023-03-23T08:10:07;67.53;;;6.25;;
4049;SDS011;2039;50.894;6.888;2023-03-23T08:12:37;69.13;;;7.40;;
4049;SDS011;2039;50.894;6.888;2023-03-23T08:15:04;65.65;;;7.68;;
4049;SDS011;2039;50.894;6.888;2023-03-23T08:17:31;69.00;;;9.05;;
4049;SDS011;2039;50.894;6.888;2023-03-23T08:19:59;68.78;;;7.65;;
4049;SDS011;2039;50.894;6.888;2023-03-23T08:22:25;66.57;;;6.35;;
4049;SDS011;2039;50.894;6.888;2023-03-23T08:24:51;69.30;;;5.90;;
4049;SDS011;2039;50.894;6.888;2023-03-23T08:27:17;66.95;;;4.47;;
4049;SDS011;2039;50.894;6.888;2023-03-23T08:29:46;66.70;;;5.80;;
4049;SDS011;2039;50.894;6.888;2023-03-23T08:32:13;68.57;;;5.27;;
4049;SDS011;2039;50.894;6.888;2023-03-23T08:34:39;65.68;;;4.10;;
4049;SDS011;2039;50.894;6.888;2023-03-23T08:37:06;68.10;;;4.63;;
4049;SDS011;2039;50.894;6.888;2023-03-23T08:39:34;67.20;;;4.17;;
4049;SDS011;2039;50.894;6.888;2023-03-23T08:41:59;65.47;;;4.20;;
4049;SDS011;2039;50.894;6.888;2023-03-23T08:44:25;67.50;;;5.23;;
4049;SDS011;2039;50.894;6.888;2023-03-23T08:46:51;69.17;;;4.97;;
4049;SDS011;2039;50.894;6.888;2023-03-23T08:49:21;65.90;;;5.70;;
4049;SDS011;2039;50.894;6.888;2023-03-23T08:51:47;71.55;;;6.00;;
4049;SDS011;2039;50.894;6.888;2023-03-23T08:54:13;70.43;;;5.03;;
4049;SDS011;2039;50.894;6.888;2023-03-23T08:56:39;66.30;;;5.33;;
4049;SDS011;2039;50.894;6.888;2023-03-23T08:59:05;72.67;;;4.90;;
4049;SDS011;2039;50.894;6.888;2023-03-23T09:01:32;67.20;;;4.28;;
4049;SDS011;2039;50.894;6.888;2023-03-23T09:03:58;68.73;;;4.57;;
4049;SDS011;2039;50.894;6.888;2023-03-23T09:06:24;65.37;;;3.70;;
4049;SDS011;2039;50.894;6.888;2023-03-23T09:08:50;68.47;;;3.70;;
4049;SDS011;2039;50.894;6.888;2023-03-23T09:11:16;65.07;;;3.17;;
4049;SDS011;2039;50.894;6.888;2023-03-23T09:13:42;67.47;;;4.03;;
4049;SDS011;2039;50.894;6.888;2023-03-23T09:16:08;65.37;;;3.43;;
4049;SDS011;2039;50.894;6.888;2023-03-23T09:18:34;67.47;;;3.03;;
4049;SDS011;2039;50.894;6.888;2023-03-23T09:21:01;67.77;;;3.30;;
4049;SDS011;2039;50.894;6.888;2023-03-23T09:23:28;66.47;;;3.03;;
4049;SDS011;2039;50.894;6.888;2023-03-23T09:25:55;64.07;;;3.40;;
4049;SDS011;2039;50.894;6.888;2023-03-23T09:28:20;68.87;;;3.83;;
4049;SDS011;2039;50.894;6.888;2023-03-23T09:30:46;69.37;;;3.97;;
4049;SDS011;2039;50.894;6.888;2023-03-23T09:33:12;68.50;;;4.17;;
4049;SDS011;2039;50.894;6.888;2023-03-23T09:35:39;66.20;;;4.10;;
4049;SDS011;2039;50.894;6.888;2023-03-23T09:38:07;76.60;;;4.37;;
4049;SDS011;2039;50.894;6.888;2023-03-23T09:40:39;67.77;;;3.50;;
4049;SDS011;2039;50.894;6.888;2023-03-23T09:49:50;66.83;;;3.30;;
4049;SDS011;2039;50.894;6.888;2023-03-23T09:52:07;67.03;;;3.40;;
4049;SDS011;2039;50.894;6.888;2023-03-23T09:54:40;67.27;;;3.80;;
4049;SDS011;2039;50.894;6.888;2023-03-23T09:57:14;69.50;;;3.80;;
4049;SDS011;2039;50.894;6.888;2023-03-23T09:59:54;66.40;;;3.87;;
4049;SDS011;2039;50.894;6.888;2023-03-23T10:02:32;70.40;;;4.20;;
4049;SDS011;2039;50.894;6.888;2023-03-23T10:05:28;65.77;;;4.23;;
4049;SDS011;2039;50.894;6.888;2023-03-23T10:07:56;66.80;;;4.27;;
4049;SDS011;2039;50.894;6.888;2023-03-23T10:10:23;68.27;;;5.00;;
4049;SDS011;2039;50.894;6.888;2023-03-23T10:16:02;67.70;;;3.83;;
4049;SDS011;2039;50.894;6.888;2023-03-23T10:21:00;66.17;;;3.03;;
4049;SDS011;2039;50.894;6.888;2023-03-23T10:29:38;66.10;;;3.03;;
4049;SDS011;2039;50.894;6.888;2023-03-23T10:32:10;67.70;;;3.77;;
4049;SDS011;2039;50.894;6.888;2023-03-23T10:34:47;65.17;;;4.10;;
4049;SDS011;2039;50.894;6.888;2023-03-23T10:37:29;63.37;;;2.50;;
4049;SDS011;2039;50.894;6.888;2023-03-23T10:40:01;64.17;;;4.30;;
4049;SDS011;2039;50.894;6.888;2023-03-23T10:42:32;65.70;;;4.07;;
4049;SDS011;2039;50.894;6.888;2023-03-23T10:45:09;66.17;;;5.60;;
4049;SDS011;2039;50.894;6.888;2023-03-23T10:47:39;65.23;;;4.67;;
4049;SDS011;2039;50.894;6.888;2023-03-23T10:50:13;64.60;;;5.47;;
4049;SDS011;2039;50.894;6.888;2023-03-23T10:52:41;65.17;;;4.07;;
4049;SDS011;2039;50.894;6.888;2023-03-23T10:57:41;67.27;;;4.33;;
4049;SDS011;2039;50.894;6.888;2023-03-23T11:03:20;64.50;;;4.00;;
4049;SDS011;2039;50.894;6.888;2023-03-23T11:08:11;65.67;;;4.63;;
4049;SDS011;2039;50.894;6.888;2023-03-23T11:10:41;66.27;;;3.73;;
4049;SDS011;2039;50.894;6.888;2023-03-23T11:13:14;68.50;;;3.90;;
4049;SDS011;2039;50.894;6.888;2023-03-23T11:15:42;63.80;;;3.80;;
4049;SDS011;2039;50.894;6.888;2023-03-23T11:18:13;65.90;;;4.30;;
4049;SDS011;2039;50.894;6.888;2023-03-23T11:20:45;65.63;;;3.53;;
4049;SDS011;2039;50.894;6.888;2023-03-23T11:23:23;65.57;;;3.47;;
4049;SDS011;2039;50.894;6.888;2023-03-23T11:28:43;65.33;;;4.27;;
4049;SDS011;2039;50.894;6.888;2023-03-23T11:31:35;66.57;;;3.80;;
4049;SDS011;2039;50.894;6.888;2023-03-23T11:34:04;64.13;;;3.40;;
4049;SDS011;2039;50.894;6.888;2023-03-23T11:40:01;64.43;;;2.80;;
4049;SDS011;2039;50.894;6.888;2023-03-23T11:42:43;68.07;;;3.17;;
4049;SDS011;2039;50.894;6.888;2023-03-23T11:45:21;64.00;;;2.90;;
4049;SDS011;2039;50.894;6.888;2023-03-23T11:50:29;64.47;;;3.40;;
4049;SDS011;2039;50.894;6.888;2023-03-23T11:58:17;65.80;;;5.20;;
4049;SDS011;2039;50.894;6.888;2023-03-23T12:00:58;63.40;;;3.87;;
4049;SDS011;2039;50.894;6.888;2023-03-23T12:17:46;65.37;;;3.90;;
4049;SDS011;2039;50.894;6.888;2023-03-23T12:31:16;65.23;;;3.23;;
4049;SDS011;2039;50.894;6.888;2023-03-23T12:44:46;64.70;;;3.40;;
4049;SDS011;2039;50.894;6.888;2023-03-23T12:47:43;68.80;;;3.60;;
4049;SDS011;2039;50.894;6.888;2023-03-23T12:50:16;66.37;;;3.67;;
4049;SDS011;2039;50.894;6.888;2023-03-23T12:53:30;68.03;;;4.23;;
4049;SDS011;2039;50.894;6.888;2023-03-23T12:55:47;66.40;;;3.83;;
4049;SDS011;2039;50.894;6.888;2023-03-23T12:58:51;66.50;;;3.33;;
4049;SDS011;2039;50.894;6.888;2023-03-23T13:01:30;70.50;;;3.53;;
4049;SDS011;2039;50.894;6.888;2023-03-23T13:04:02;71.30;;;3.87;;
4049;SDS011;2039;50.894;6.888;2023-03-23T13:06:40;64.40;;;4.10;;
4049;SDS011;2039;50.894;6.888;2023-03-23T13:11:54;66.37;;;4.00;;
4049;SDS011;2039;50.894;6.888;2023-03-23T13:26:03;67.23;;;4.33;;
4049;SDS011;2039;50.894;6.888;2023-03-23T13:31:37;65.63;;;3.80;;
4049;SDS011;2039;50.894;6.888;2023-03-23T13:36:39;64.80;;;3.50;;
4049;SDS011;2039;50.894;6.888;2023-03-23T13:39:20;67.00;;;3.10;;
4049;SDS011;2039;50.894;6.888;2023-03-23T13:44:25;64.80;;;3.30;;
4049;SDS011;2039;50.894;6.888;2023-03-23T13:46:57;65.87;;;4.00;;
4049;SDS011;2039;50.894;6.888;2023-03-23T13:49:31;66.80;;;4.13;;
4049;SDS011;2039;50.894;6.888;2023-03-23T13:52:15;64.93;;;3.37;;
4049;SDS011;2039;50.894;6.888;2023-03-23T13:54:49;65.90;;;3.67;;
4049;SDS011;2039;50.894;6.888;2023-03-23T14:03:02;65.43;;;3.40;;
4049;SDS011;2039;50.894;6.888;2023-03-23T14:06:11;69.57;;;3.70;;
4049;SDS011;2039;50.894;6.888;2023-03-23T14:08:41;65.57;;;3.00;;
4049;SDS011;2039;50.894;6.888;2023-03-23T14:11:13;68.10;;;2.90;;
4049;SDS011;2039;50.894;6.888;2023-03-23T14:14:07;67.50;;;4.10;;
4049;SDS011;2039;50.894;6.888;2023-03-23T14:16:43;65.93;;;3.40;;
4049;SDS011;2039;50.894;6.888;2023-03-23T14:19:25;65.67;;;3.20;;
4049;SDS011;2039;50.894;6.888;2023-03-23T14:21:57;66.27;;;3.50;;
4049;SDS011;2039;50.894;6.888;2023-03-23T14:27:01;71.70;;;3.50;;
4049;SDS011;2039;50.894;6.888;2023-03-23T14:29:32;66.73;;;3.83;;
4049;SDS011;2039;50.894;6.888;2023-03-23T14:31:58;69.17;;;3.33;;
4049;SDS011;2039;50.894;6.888;2023-03-23T14:34:28;68.93;;;3.13;;
4049;SDS011;2039;50.894;6.888;2023-03-23T14:36:56;70.00;;;3.50;;
4049;SDS011;2039;50.894;6.888;2023-03-23T14:39:27;64.87;;;3.67;;
4049;SDS011;2039;50.894;6.888;2023-03-23T14:41:55;65.27;;;3.67;;
4049;SDS011;2039;50.894;6.888;2023-03-23T14:44:28;65.10;;;3.90;;
4049;SDS011;2039;50.894;6.888;2023-03-23T14:47:01;66.07;;;3.60;;
4049;SDS011;2039;50.894;6.888;2023-03-23T14:49:33;65.17;;;2.70;;
4049;SDS011;2039;50.894;6.888;2023-03-23T14:52:08;66.07;;;3.13;;
4049;SDS011;2039;50.894;6.888;2023-03-23T14:54:38;66.53;;;4.20;;
4049;SDS011;2039;50.894;6.888;2023-03-23T14:59:51;65.57;;;4.00;;
4049;SDS011;2039;50.894;6.888;2023-03-23T15:02:20;65.27;;;4.53;;
4049;SDS011;2039;50.894;6.888;2023-03-23T15:04:53;65.07;;;3.30;;
4049;SDS011;2039;50.894;6.888;2023-03-23T15:07:24;66.50;;;3.13;;
4049;SDS011;2039;50.894;6.888;2023-03-23T15:09:53;66.55;;;3.90;;
4049;SDS011;2039;50.894;6.888;2023-03-23T15:12:20;68.97;;;4.10;;
4049;SDS011;2039;50.894;6.888;2023-03-23T15:15:01;66.37;;;3.50;;
4049;SDS011;2039;50.894;6.888;2023-03-23T15:17:30;66.17;;;3.10;;
4049;SDS011;2039;50.894;6.888;2023-03-23T15:20:08;67.00;;;3.40;;
4049;SDS011;2039;50.894;6.888;2023-03-23T15:22:35;68.33;;;3.70;;
4049;SDS011;2039;50.894;6.888;2023-03-23T15:25:03;66.10;;;3.03;;
4049;SDS011;2039;50.894;6.888;2023-03-23T15:27:30;67.57;;;3.33;;
4049;SDS011;2039;50.894;6.888;2023-03-23T15:33:08;65.43;;;3.17;;
4049;SDS011;2039;50.894;6.888;2023-03-23T15:35:36;65.87;;;3.20;;
4049;SDS011;2039;50.894;6.888;2023-03-23T15:40:54;65.70;;;3.13;;
4049;SDS011;2039;50.894;6.888;2023-03-23T15:43:25;67.07;;;3.97;;
4049;SDS011;2039;50.894;6.888;2023-03-23T15:45:53;67.00;;;3.03;;
4049;SDS011;2039;50.894;6.888;2023-03-23T15:48:23;67.63;;;3.23;;
4049;SDS011;2039;50.894;6.888;2023-03-23T15:50:49;66.57;;;3.40;;
4049;SDS011;2039;50.894;6.888;2023-03-23T15:53:25;65.67;;;3.50;;
4049;SDS011;2039;50.894;6.888;2023-03-23T15:56:03;66.57;;;3.03;;
4049;SDS011;2039;50.894;6.888;2023-03-23T15:58:31;68.60;;;2.80;;
4049;SDS011;2039;50.894;6.888;2023-03-23T16:00:57;67.17;;;3.70;;
4049;SDS011;2039;50.894;6.888;2023-03-23T16:03:27;66.70;;;3.33;;
4049;SDS011;2039;50.894;6.888;2023-03-23T16:06:03;67.07;;;3.60;;
4049;SDS011;2039;50.894;6.888;2023-03-23T16:08:29;67.47;;;3.47;;
4049;SDS011;2039;50.894;6.888;2023-03-23T16:10:56;68.70;;;3.10;;
4049;SDS011;2039;50.894;6.888;2023-03-23T16:13:21;64.80;;;2.97;;
4049;SDS011;2039;50.894;6.888;2023-03-23T16:15:47;70.13;;;2.93;;
4049;SDS011;2039;50.894;6.888;2023-03-23T16:18:18;67.80;;;3.07;;
4049;SDS011;2039;50.894;6.888;2023-03-23T16:20:46;65.27;;;3.53;;
4049;SDS011;2039;50.894;6.888;2023-03-23T16:23:13;67.53;;;3.50;;
4049;SDS011;2039;50.894;6.888;2023-03-23T16:25:39;66.87;;;3.10;;
4049;SDS011;2039;50.894;6.888;2023-03-23T16:28:05;70.87;;;3.17;;
4049;SDS011;2039;50.894;6.888;2023-03-23T16:30:33;66.27;;;3.47;;
4049;SDS011;2039;50.894;6.888;2023-03-23T16:33:02;69.00;;;3.97;;
4049;SDS011;2039;50.894;6.888;2023-03-23T16:35:28;67.30;;;3.90;;
4049;SDS011;2039;50.894;6.888;2023-03-23T16:37:54;67.93;;;3.73;;
4049;SDS011;2039;50.894;6.888;2023-03-23T16:40:23;67.97;;;3.53;;
4049;SDS011;2039;50.894;6.888;2023-03-23T16:42:50;66.67;;;3.13;;
4049;SDS011;2039;50.894;6.888;2023-03-23T16:45:16;65.70;;;4.53;;
4049;SDS011;2039;50.894;6.888;2023-03-23T16:47:43;68.63;;;4.83;;
4049;SDS011;2039;50.894;6.888;2023-03-23T16:50:11;67.00;;;3.57;;
4049;SDS011;2039;50.894;6.888;2023-03-23T16:52:39;71.37;;;4.43;;
4049;SDS011;2039;50.894;6.888;2023-03-23T16:55:06;68.80;;;4.07;;
4049;SDS011;2039;50.894;6.888;2023-03-23T16:57:34;69.43;;;3.53;;
4049;SDS011;2039;50.894;6.888;2023-03-23T17:00:02;66.70;;;3.30;;
4049;SDS011;2039;50.894;6.888;2023-03-23T17:02:30;67.50;;;4.00;;
4049;SDS011;2039;50.894;6.888;2023-03-23T17:04:56;66.23;;;4.03;;
4049;SDS011;2039;50.894;6.888;2023-03-23T17:07:22;67.83;;;3.27;;
4049;SDS011;2039;50.894;6.888;2023-03-23T17:09:48;67.67;;;4.07;;
4049;SDS011;2039;50.894;6.888;2023-03-23T17:12:15;70.23;;;3.43;;
4049;SDS011;2039;50.894;6.888;2023-03-23T17:14:41;66.73;;;3.40;;
4049;SDS011;2039;50.894;6.888;2023-03-23T17:17:07;66.60;;;3.40;;
4049;SDS011;2039;50.894;6.888;2023-03-23T17:19:33;66.50;;;4.03;;
4049;SDS011;2039;50.894;6.888;2023-03-23T17:21:59;69.40;;;4.00;;
4049;SDS011;2039;50.894;6.888;2023-03-23T17:24:25;66.40;;;3.80;;
4049;SDS011;2039;50.894;6.888;2023-03-23T17:26:52;66.90;;;3.73;;
4049;SDS011;2039;50.894;6.888;2023-03-23T17:29:18;67.30;;;4.37;;
4049;SDS011;2039;50.894;6.888;2023-03-23T17:31:46;67.73;;;4.43;;
4049;SDS011;2039;50.894;6.888;2023-03-23T17:34:13;66.93;;;4.93;;
4049;SDS011;2039;50.894;6.888;2023-03-23T17:36:39;65.13;;;4.60;;
4049;SDS011;2039;50.894;6.888;2023-03-23T17:39:05;66.63;;;5.57;;